createdAt,value
2018-02-14T00:01:07.585Z,15.02
2018-02-14T00:03:34.617Z,16.42
2018-02-14T00:06:00.905Z,17.45
2018-02-14T00:08:27.192Z,14.70
2018-02-14T00:10:53.470Z,14.98
2018-02-14T00:13:19.707Z,17.50
2018-02-14T00:15:45.921Z,14.32
2018-02-14T00:18:12.251Z,17.37
2018-02-14T00:20:38.466Z,17.15
2018-02-14T00:23:04.772Z,19.08
2018-02-14T00:25:30.994Z,17.23
2018-02-14T00:27:57.199Z,19.95
2018-02-14T00:30:23.853Z,25.65
2018-02-14T00:32:50.249Z,17.62
2018-02-14T00:35:16.539Z,15.15
2018-02-14T00:37:42.831Z,17.95
2018-02-14T00:40:09.074Z,15.57
2018-02-14T00:42:35.452Z,18.25
2018-02-14T00:45:01.796Z,16.98
2018-02-14T00:47:28.042Z,19.27
2018-02-14T00:49:54.630Z,16.37
2018-02-14T00:52:20.894Z,17.12
2018-02-14T00:54:47.114Z,17.25
2018-02-14T00:57:13.327Z,20.08
2018-02-14T00:59:39.562Z,18.83
2018-02-14T01:02:12.948Z,17.50
2018-02-14T01:04:39.255Z,20.15
2018-02-14T01:07:05.508Z,19.45
2018-02-14T01:09:31.804Z,18.70
2018-02-14T01:11:58.043Z,20.00
2018-02-14T01:14:24.266Z,19.77
2018-02-14T01:16:50.916Z,19.48
2018-02-14T01:19:17.117Z,19.42
2018-02-14T01:22:04.299Z,20.50
2018-02-14T01:24:30.521Z,23.92
2018-02-14T01:26:56.768Z,19.17
2018-02-14T01:29:23.443Z,22.62
2018-02-14T01:31:49.731Z,21.25
2018-02-14T01:34:16.057Z,21.37
2018-02-14T01:36:42.333Z,17.77
2018-02-14T01:39:15.708Z,22.20
2018-02-14T01:41:42.394Z,20.02
2018-02-14T01:44:08.764Z,18.33
2018-02-14T01:46:35.600Z,20.02
2018-02-14T01:49:01.918Z,17.10
2018-02-14T01:51:28.433Z,20.65
2018-02-14T01:53:54.773Z,19.25
2018-02-14T01:56:21.015Z,18.23
2018-02-14T01:58:47.233Z,26.37
2018-02-14T02:01:13.494Z,17.05
2018-02-14T02:03:40.079Z,20.85
2018-02-14T02:06:06.392Z,17.60
2018-02-14T02:08:32.655Z,18.20
2018-02-14T02:10:58.984Z,19.65
2018-02-14T02:13:25.307Z,17.90
2018-02-14T02:15:51.567Z,19.80
2018-02-14T02:18:18.179Z,23.60
2018-02-14T02:20:44.387Z,21.02
2018-02-14T02:23:10.592Z,17.37
2018-02-14T02:25:36.854Z,17.75
2018-02-14T02:28:03.109Z,20.00
2018-02-14T02:30:29.374Z,21.75
2018-02-14T02:32:55.645Z,20.27
2018-02-14T02:35:21.953Z,23.50
2018-02-14T02:37:48.142Z,21.33
2018-02-14T02:40:26.987Z,18.80
2018-02-14T02:42:53.216Z,18.00
2018-02-14T02:45:19.567Z,20.23
2018-02-14T02:47:45.871Z,22.37
2018-02-14T02:50:12.103Z,16.83
2018-02-14T02:52:38.392Z,18.30
2018-02-14T02:55:05.275Z,18.67
2018-02-14T02:57:31.605Z,18.73
2018-02-14T02:59:57.832Z,18.85
2018-02-14T03:02:24.203Z,21.90
2018-02-14T03:04:50.580Z,21.77
2018-02-14T03:07:17.327Z,20.50
2018-02-14T03:09:43.567Z,19.25
2018-02-14T03:12:09.856Z,22.17
2018-02-14T03:14:36.168Z,17.73
2018-02-14T03:17:02.464Z,20.10
2018-02-14T03:19:28.771Z,20.55
2018-02-14T03:21:55.018Z,22.20
2018-02-14T03:24:21.381Z,19.50
2018-02-14T03:26:47.796Z,21.62
2018-02-14T03:29:14.083Z,17.37
2018-02-14T03:31:40.311Z,21.58
2018-02-14T03:34:06.517Z,22.20
2018-02-14T03:36:33.262Z,21.35
2018-02-14T03:38:59.476Z,22.35
2018-02-14T03:41:25.734Z,18.30
2018-02-14T03:43:52.081Z,19.95
2018-02-14T03:46:18.335Z,18.15
2018-02-14T03:48:44.675Z,24.67
2018-02-14T03:51:17.807Z,21.48
2018-02-14T03:53:44.550Z,18.33
2018-02-14T03:56:10.787Z,20.25
2018-02-14T03:58:37.415Z,20.75
2018-02-14T04:01:03.919Z,20.62
2018-02-14T04:03:30.158Z,19.92
2018-02-14T04:05:56.358Z,19.33
2018-02-14T04:08:22.593Z,20.02
2018-02-14T04:10:48.833Z,21.80
2018-02-14T04:13:15.021Z,17.00
2018-02-14T04:15:41.309Z,19.33
2018-02-14T04:18:07.611Z,22.25
2018-02-14T04:20:34.096Z,18.67
2018-02-14T04:23:01.225Z,19.75
2018-02-14T04:25:28.028Z,22.62
2018-02-14T04:27:54.344Z,23.05
2018-02-14T04:30:25.395Z,20.25
2018-02-14T04:32:51.799Z,23.48
2018-02-14T04:35:18.009Z,19.08
2018-02-14T04:37:44.225Z,24.05
2018-02-14T04:40:10.464Z,22.62
2018-02-14T04:42:36.694Z,21.62
2018-02-14T04:45:02.947Z,17.12
2018-02-14T04:47:29.676Z,21.10
2018-02-14T04:49:55.923Z,17.95
2018-02-14T04:52:22.291Z,24.37
2018-02-14T04:54:48.981Z,21.17
2018-02-14T04:57:15.230Z,24.60
2018-02-14T04:59:41.574Z,21.98
2018-02-14T05:02:07.779Z,20.85
2018-02-14T05:04:34.260Z,18.02
2018-02-14T05:07:00.951Z,21.70
2018-02-14T05:09:27.217Z,20.77
2018-02-14T05:11:53.452Z,18.58
2018-02-14T05:14:19.753Z,23.67
2018-02-14T05:16:46.410Z,24.23
2018-02-14T05:19:12.728Z,21.70
2018-02-14T05:21:38.931Z,20.77
2018-02-14T05:24:05.187Z,18.33
2018-02-14T05:26:31.376Z,20.45
2018-02-14T05:28:57.582Z,21.33
2018-02-14T05:31:24.512Z,19.87
2018-02-14T05:33:50.755Z,15.60
2018-02-14T05:36:16.962Z,20.50
2018-02-14T05:38:43.173Z,18.67
2018-02-14T05:41:09.474Z,19.83
2018-02-14T05:43:35.694Z,18.95
2018-02-14T05:46:01.936Z,15.35
2018-02-14T05:48:28.236Z,20.88
2018-02-14T05:50:54.563Z,21.27
2018-02-14T05:53:21.022Z,16.98
2018-02-14T05:55:47.396Z,20.00
2018-02-14T05:58:13.810Z,17.08
2018-02-14T06:00:40.109Z,18.17
2018-02-14T06:03:06.502Z,20.98
2018-02-14T06:05:32.800Z,20.20
2018-02-14T06:07:59.074Z,18.58
2018-02-14T06:10:25.748Z,17.98
2018-02-14T06:12:52.140Z,19.52
2018-02-14T06:15:18.884Z,19.60
2018-02-14T06:17:45.179Z,16.45
2018-02-14T06:20:11.469Z,16.08
2018-02-14T06:22:37.695Z,19.10
2018-02-14T06:25:03.960Z,16.33
2018-02-14T06:27:30.313Z,19.10
2018-02-14T06:29:56.499Z,17.95
2018-02-14T06:32:22.999Z,18.75
2018-02-14T06:34:49.658Z,21.87
2018-02-14T06:37:15.959Z,17.40
2018-02-14T06:39:42.567Z,19.15
2018-02-14T06:42:08.768Z,19.85
2018-02-14T06:44:35.042Z,18.35
2018-02-14T06:47:01.623Z,19.12
2018-02-14T06:49:27.847Z,17.67
2018-02-14T06:51:54.290Z,20.10
2018-02-14T06:54:20.746Z,16.42
2018-02-14T06:56:46.958Z,19.12
2018-02-14T06:59:13.195Z,19.23
2018-02-14T07:01:39.514Z,19.45
2018-02-14T07:04:05.818Z,21.90
2018-02-14T07:06:32.148Z,19.00
2018-02-14T07:08:58.439Z,22.40
2018-02-14T07:11:24.784Z,19.67
2018-02-14T07:13:50.994Z,20.23
2018-02-14T07:16:17.210Z,20.25
2018-02-14T07:18:43.528Z,26.77
2018-02-14T07:21:16.928Z,21.73
2018-02-14T07:23:43.194Z,22.35
2018-02-14T07:26:09.759Z,22.27
2018-02-14T07:28:36.027Z,23.62
2018-02-14T07:31:02.317Z,21.37
2018-02-14T07:33:28.634Z,25.85
2018-02-14T07:35:54.952Z,21.25
2018-02-14T07:38:21.608Z,24.70
2018-02-14T07:40:47.909Z,22.92
2018-02-14T07:43:14.380Z,29.80
2018-02-14T07:45:40.803Z,25.08
2018-02-14T07:48:07.031Z,23.92
2018-02-14T07:50:33.341Z,26.50
2018-02-14T07:52:59.708Z,23.17
2018-02-14T07:55:26.040Z,21.92
2018-02-14T07:57:52.422Z,23.67
2018-02-14T08:00:18.917Z,20.75
2018-02-14T08:02:45.542Z,26.80
2018-02-14T08:05:12.633Z,24.40
2018-02-14T08:07:38.931Z,21.00
2018-02-14T08:10:05.740Z,27.20
2018-02-14T08:12:32.114Z,22.45
2018-02-14T08:14:58.423Z,25.52
2018-02-14T08:17:24.935Z,24.05
2018-02-14T08:19:51.335Z,26.02
2018-02-14T08:22:18.311Z,25.45
2018-02-14T08:24:44.592Z,32.60
2018-02-14T08:27:10.875Z,28.45
2018-02-14T08:29:37.113Z,23.60
2018-02-14T08:32:10.122Z,24.75
2018-02-14T08:34:36.388Z,26.45
2018-02-14T08:37:02.968Z,25.65
2018-02-14T08:39:29.177Z,26.87
2018-02-14T08:41:55.491Z,26.37
2018-02-14T08:44:22.106Z,30.33
2018-02-14T08:46:48.402Z,29.95
2018-02-14T08:49:14.648Z,27.77
2018-02-14T08:51:40.840Z,30.73
2018-02-14T08:54:08.196Z,31.80
2018-02-14T08:56:34.869Z,29.15
2018-02-14T08:59:01.103Z,29.92
2018-02-14T09:01:27.396Z,28.45
2018-02-14T09:03:53.712Z,33.38
2018-02-14T09:06:19.999Z,30.62
2018-02-14T09:08:46.241Z,33.70
2018-02-14T09:11:12.906Z,30.00
2018-02-14T09:13:39.155Z,36.15
2018-02-14T09:16:06.110Z,36.20
2018-02-14T09:18:32.462Z,31.75
2018-02-14T09:20:58.691Z,30.05
2018-02-14T09:23:24.916Z,34.70
2018-02-14T09:25:51.159Z,32.70
2018-02-14T09:28:17.499Z,33.83
2018-02-14T09:30:43.750Z,33.67
2018-02-14T09:33:09.985Z,33.50
2018-02-14T09:35:36.230Z,35.25
2018-02-14T09:38:02.462Z,34.05
2018-02-14T09:40:28.717Z,34.75
2018-02-14T09:42:55.418Z,34.45
2018-02-14T09:45:21.652Z,29.12
2018-02-14T09:47:48.414Z,30.08
2018-02-14T09:50:14.662Z,33.80
2018-02-14T09:52:40.985Z,34.67
2018-02-14T09:55:07.331Z,35.50
2018-02-14T09:57:34.457Z,32.92
2018-02-14T10:00:00.745Z,31.17
2018-02-14T10:02:27.015Z,30.83
2018-02-14T10:04:53.422Z,31.87
2018-02-14T10:07:19.710Z,27.48
2018-02-14T10:09:46.033Z,31.58
2018-02-14T10:12:12.314Z,29.95
2018-02-14T10:14:38.966Z,30.90
2018-02-14T10:17:06.137Z,25.42
2018-02-14T10:19:32.342Z,23.17
2018-02-14T10:21:58.912Z,28.27
2018-02-14T10:24:25.182Z,25.58
2018-02-14T10:26:51.368Z,22.17
2018-02-14T10:29:17.663Z,23.23
2018-02-14T10:31:43.977Z,24.30
2018-02-14T10:34:10.253Z,23.15
2018-02-14T10:36:36.486Z,22.73
2018-02-14T10:39:03.154Z,21.67
2018-02-14T10:41:29.398Z,23.47
2018-02-14T10:43:55.623Z,21.40
2018-02-14T10:46:21.862Z,23.03
2018-02-14T10:48:48.109Z,24.57
2018-02-14T10:51:14.348Z,24.70
2018-02-14T10:53:40.858Z,23.90
2018-02-14T10:56:07.097Z,22.83
2018-02-14T10:58:33.289Z,21.70
2018-02-14T11:01:01.782Z,24.03
2018-02-14T11:03:34.800Z,23.63
2018-02-14T11:06:07.058Z,21.77
2018-02-14T11:08:33.277Z,24.60
2018-02-14T11:10:59.496Z,23.07
2018-02-14T11:13:25.725Z,24.23
2018-02-14T11:15:51.987Z,24.30
2018-02-14T11:18:18.224Z,23.23
2018-02-14T11:20:44.446Z,24.37
2018-02-14T11:23:10.768Z,22.47
2018-02-14T11:25:37.310Z,23.20
2018-02-14T11:28:03.503Z,25.60
2018-02-14T11:30:29.734Z,24.43
2018-02-14T11:32:56.021Z,23.63
2018-02-14T11:35:22.595Z,23.00
2018-02-14T11:37:48.781Z,23.13
2018-02-14T11:40:15.014Z,24.17
2018-02-14T11:42:41.308Z,23.37
2018-02-14T11:45:07.595Z,24.33
2018-02-14T11:47:33.865Z,21.70
2018-02-14T11:50:00.547Z,21.97
2018-02-14T11:52:26.838Z,21.43
2018-02-14T11:54:53.045Z,22.73
2018-02-14T11:57:19.359Z,23.13
2018-02-14T11:59:45.673Z,22.37
2018-02-14T12:02:11.937Z,20.33
2018-02-14T12:04:38.176Z,22.80
2018-02-14T12:07:04.424Z,23.10
2018-02-14T12:09:30.944Z,22.00
2018-02-14T12:11:57.157Z,21.70
2018-02-14T12:14:23.373Z,21.70
2018-02-14T12:16:49.646Z,20.07
2018-02-14T12:19:15.850Z,17.40
2018-02-14T12:21:42.059Z,17.00
2018-02-14T12:24:08.325Z,19.00
2018-02-14T12:26:34.797Z,18.57
2018-02-14T12:29:01.035Z,17.33
2018-02-14T12:31:27.271Z,17.67
2018-02-14T12:33:53.537Z,17.57
2018-02-14T12:36:19.858Z,14.90
2018-02-14T12:38:46.097Z,15.57
2018-02-14T12:41:12.388Z,15.80
2018-02-14T12:43:39.369Z,15.93
2018-02-14T12:46:06.348Z,14.20
2018-02-14T12:48:32.655Z,15.03
2018-02-14T12:50:58.898Z,16.40
2018-02-14T12:53:25.474Z,18.03
2018-02-14T12:55:51.917Z,16.00
2018-02-14T12:58:18.147Z,15.27
2018-02-14T13:00:44.418Z,14.70
2018-02-14T13:03:11.464Z,13.40
2018-02-14T13:05:38.079Z,16.67
2018-02-14T13:08:04.329Z,14.17
2018-02-14T13:10:30.983Z,13.67
2018-02-14T13:12:57.300Z,13.77
2018-02-14T13:15:23.534Z,13.57
2018-02-14T13:17:50.214Z,16.55
2018-02-14T13:20:16.453Z,13.98
2018-02-14T13:22:42.870Z,13.32
2018-02-14T13:25:09.118Z,13.50
2018-02-14T13:27:35.413Z,12.57
2018-02-14T13:30:01.618Z,13.62
2018-02-14T13:32:28.208Z,12.30
2018-02-14T13:34:54.386Z,13.30
2018-02-14T13:37:20.957Z,11.45
2018-02-14T13:39:47.201Z,12.13
2018-02-14T13:42:14.325Z,12.02
2018-02-14T13:44:40.584Z,12.52
2018-02-14T13:47:07.221Z,10.80
2018-02-14T13:49:33.451Z,12.68
2018-02-14T13:51:59.703Z,12.05
2018-02-14T13:54:25.945Z,12.98
2018-02-14T13:56:52.589Z,11.68
2018-02-14T13:59:19.295Z,11.68
2018-02-14T14:01:45.634Z,13.07
2018-02-14T14:04:12.251Z,10.68
2018-02-14T14:06:38.976Z,11.00
2018-02-14T14:09:05.401Z,11.25
2018-02-14T14:11:31.690Z,10.60
2018-02-14T14:13:58.005Z,11.93
2018-02-14T14:16:24.311Z,10.65
2018-02-14T14:18:50.619Z,10.27
2018-02-14T14:21:17.230Z,8.77
2018-02-14T14:23:43.525Z,8.93
2018-02-14T14:26:09.891Z,9.52
2018-02-14T14:28:36.605Z,12.10
2018-02-14T14:31:02.988Z,8.55
2018-02-14T14:33:29.332Z,8.13
2018-02-14T14:35:55.746Z,8.18
2018-02-14T14:38:22.116Z,8.05
2018-02-14T14:40:48.400Z,8.60
2018-02-14T14:43:14.660Z,8.50
2018-02-14T14:45:40.906Z,7.95
2018-02-14T14:48:07.366Z,8.25
2018-02-14T14:50:33.659Z,10.20
2018-02-14T14:52:59.920Z,7.93
2018-02-14T14:55:26.491Z,7.05
2018-02-14T14:57:53.235Z,7.25
2018-02-14T15:00:20.144Z,7.50
2018-02-14T15:02:46.442Z,7.97
2018-02-14T15:05:12.672Z,7.72
2018-02-14T15:07:38.883Z,7.68
2018-02-14T15:10:05.200Z,7.30
2018-02-14T15:12:31.471Z,7.20
2018-02-14T15:14:57.706Z,8.23
2018-02-14T15:17:23.940Z,7.87
2018-02-14T15:19:50.146Z,8.20
2018-02-14T15:22:16.786Z,7.70
2018-02-14T15:24:43.060Z,8.23
2018-02-14T15:27:09.525Z,7.62
2018-02-14T15:29:35.809Z,6.47
2018-02-14T15:32:02.105Z,7.30
2018-02-14T15:34:28.379Z,6.60
2018-02-14T15:36:54.706Z,6.57
2018-02-14T15:39:20.929Z,7.53
2018-02-14T15:41:47.299Z,7.00
2018-02-14T15:44:13.511Z,6.85
2018-02-14T15:46:39.745Z,8.95
2018-02-14T15:49:05.995Z,6.85
2018-02-14T15:51:32.213Z,7.40
2018-02-14T15:53:58.462Z,16.80
2018-02-14T15:56:24.679Z,43.15
2018-02-14T15:58:50.920Z,93.28
2018-02-14T16:01:17.142Z,25.98
2018-02-14T16:03:43.363Z,10.38
2018-02-14T16:06:09.601Z,14.05
2018-02-14T16:08:36.343Z,13.65
2018-02-14T16:11:02.618Z,8.73
2018-02-14T16:13:28.846Z,8.00
2018-02-14T16:15:55.545Z,9.90
2018-02-14T16:18:21.732Z,9.40
2018-02-14T16:20:47.966Z,10.68
2018-02-14T16:23:14.276Z,8.80
2018-02-14T16:25:40.519Z,9.43
2018-02-14T16:28:06.786Z,11.00
2018-02-14T16:30:33.022Z,10.90
2018-02-14T16:32:59.621Z,10.20
2018-02-14T16:35:25.905Z,9.55
2018-02-14T16:37:52.650Z,9.95
2018-02-14T16:40:19.410Z,8.23
2018-02-14T16:42:45.665Z,9.52
2018-02-14T16:45:11.924Z,7.95
2018-02-14T16:47:38.134Z,8.90
2018-02-14T16:50:04.426Z,8.02
2018-02-14T16:52:30.723Z,8.63
2018-02-14T16:54:56.924Z,7.47
2018-02-14T16:57:24.391Z,8.65
2018-02-14T16:59:50.662Z,9.20
2018-02-14T17:02:16.852Z,8.13
2018-02-14T17:04:43.150Z,7.55
2018-02-14T17:07:09.520Z,7.50
2018-02-14T17:09:36.237Z,8.40
2018-02-14T17:12:02.538Z,8.15
2018-02-14T17:14:28.805Z,9.45
2018-02-14T17:16:55.217Z,8.68
2018-02-14T17:19:21.517Z,10.73
2018-02-14T17:21:47.858Z,11.00
2018-02-14T17:24:14.083Z,12.90
2018-02-14T17:26:40.379Z,12.18
2018-02-14T17:29:06.753Z,13.13
2018-02-14T17:31:32.985Z,11.45
2018-02-14T17:33:59.296Z,12.70
2018-02-14T17:36:25.550Z,11.23
2018-02-14T17:38:51.841Z,12.88
2018-02-14T17:41:18.083Z,13.98
2018-02-14T17:43:44.385Z,14.25
2018-02-14T17:46:10.938Z,15.07
2018-02-14T17:48:37.230Z,12.50
2018-02-14T17:51:03.946Z,11.70
2018-02-14T17:53:30.242Z,13.50
2018-02-14T17:55:56.484Z,14.30
2018-02-14T17:58:22.750Z,10.65
2018-02-14T18:00:49.129Z,10.52
2018-02-14T18:03:15.900Z,11.57
2018-02-14T18:05:43.062Z,10.20
2018-02-14T18:08:09.366Z,12.30
2018-02-14T18:10:35.696Z,11.98
2018-02-14T18:13:01.964Z,10.93
2018-02-14T18:15:28.276Z,12.57
2018-02-14T18:17:54.958Z,11.90
2018-02-14T18:20:21.582Z,11.77
2018-02-14T18:22:48.201Z,11.45
2018-02-14T18:25:14.525Z,12.60
2018-02-14T18:27:40.827Z,17.30
2018-02-14T18:30:07.519Z,11.65
2018-02-14T18:32:34.117Z,11.02
2018-02-14T18:35:00.351Z,11.32
2018-02-14T18:37:26.597Z,12.02
2018-02-14T18:39:52.795Z,12.85
2018-02-14T18:42:19.067Z,13.85
2018-02-14T18:44:45.753Z,12.60
2018-02-14T18:47:11.990Z,11.82
2018-02-14T18:49:38.309Z,11.15
2018-02-14T18:52:04.642Z,12.73
2018-02-14T18:54:31.027Z,12.95
2018-02-14T18:56:57.612Z,12.02
2018-02-14T18:59:23.851Z,13.98
2018-02-14T19:01:50.985Z,12.15
2018-02-14T19:04:17.228Z,13.18
2018-02-14T19:06:43.463Z,10.65
2018-02-14T19:09:09.682Z,11.00
2018-02-14T19:11:36.230Z,16.40
2018-02-14T19:14:02.618Z,12.10
2018-02-14T19:16:28.854Z,13.27
2018-02-14T19:18:56.352Z,14.00
2018-02-14T19:21:22.747Z,11.15
2018-02-14T19:23:48.988Z,15.75
2018-02-14T19:26:15.235Z,12.88
2018-02-14T19:28:41.471Z,14.38
2018-02-14T19:31:07.681Z,12.27
2018-02-14T19:33:33.949Z,14.07
2018-02-14T19:36:00.571Z,12.68
2018-02-14T19:38:26.801Z,12.65
2018-02-14T19:40:53.086Z,12.85
2018-02-14T19:43:19.328Z,14.20
2018-02-14T19:45:45.760Z,15.07
2018-02-14T19:48:11.964Z,11.30
2018-02-14T19:50:38.251Z,13.55
2018-02-14T19:53:04.477Z,13.65
2018-02-14T19:55:30.736Z,14.48
2018-02-14T19:57:57.054Z,15.20
2018-02-14T20:00:23.729Z,13.70
2018-02-14T20:02:50.012Z,15.02
2018-02-14T20:05:16.251Z,14.73
2018-02-14T20:07:42.651Z,16.80
2018-02-14T20:10:08.882Z,13.90
2018-02-14T20:12:35.314Z,15.30
2018-02-14T20:15:01.638Z,14.40
2018-02-14T20:17:27.891Z,15.15
2018-02-14T20:19:54.467Z,14.10
2018-02-14T20:22:20.717Z,12.65
2018-02-14T20:24:46.949Z,15.18
2018-02-14T20:27:13.320Z,16.60
2018-02-14T20:29:39.715Z,13.48
2018-02-14T20:32:06.085Z,17.45
2018-02-14T20:34:32.807Z,17.10
2018-02-14T20:36:59.070Z,15.50
2018-02-14T20:39:25.292Z,16.08
2018-02-14T20:41:51.613Z,15.02
2018-02-14T20:44:18.785Z,16.50
2018-02-14T20:46:45.889Z,15.93
2018-02-14T20:49:12.161Z,17.15
2018-02-14T20:51:38.425Z,19.00
2018-02-14T20:54:04.713Z,18.92
2018-02-14T20:56:31.023Z,18.05
2018-02-14T20:58:57.392Z,16.52
2018-02-14T21:01:23.615Z,17.42
2018-02-14T21:03:49.847Z,19.85
2018-02-14T21:06:16.109Z,21.33
2018-02-14T21:08:42.346Z,16.37
2018-02-14T21:11:08.676Z,18.83
2018-02-14T21:13:35.159Z,19.58
2018-02-14T21:16:01.484Z,20.27
2018-02-14T21:18:27.693Z,18.62
2018-02-14T21:20:54.322Z,21.60
2018-02-14T21:23:20.635Z,17.87
2018-02-14T21:25:46.890Z,19.60
2018-02-14T21:28:13.559Z,25.33
2018-02-14T21:30:39.841Z,34.25
2018-02-14T21:33:06.104Z,29.45
2018-02-14T21:35:32.689Z,30.92
2018-02-14T21:37:58.902Z,27.10
2018-02-14T21:40:25.185Z,20.17
2018-02-14T21:42:51.807Z,19.70
2018-02-14T21:45:18.133Z,21.40
2018-02-14T21:47:44.370Z,21.90
2018-02-14T21:50:11.031Z,31.35
2018-02-14T21:52:37.651Z,29.98
2018-02-14T21:55:04.308Z,32.38
2018-02-14T21:57:30.561Z,33.28
2018-02-14T21:59:56.786Z,32.95
2018-02-14T22:02:23.064Z,25.62
2018-02-14T22:04:49.337Z,32.85
2018-02-14T22:07:15.579Z,34.58
2018-02-14T22:09:41.832Z,41.78
2018-02-14T22:12:08.095Z,40.20
2018-02-14T22:14:34.712Z,33.33
2018-02-14T22:17:00.968Z,31.35
2018-02-14T22:19:27.245Z,41.80
2018-02-14T22:21:53.590Z,44.13
2018-02-14T22:24:19.944Z,45.00
2018-02-14T22:26:46.561Z,40.80
2018-02-14T22:29:12.846Z,36.88
2018-02-14T22:31:39.955Z,29.65
2018-02-14T22:34:06.213Z,28.60
2018-02-14T22:36:32.631Z,31.05
2018-02-14T22:38:58.871Z,32.90
2018-02-14T22:41:25.077Z,37.50
2018-02-14T22:43:51.784Z,38.08
2018-02-14T22:46:18.081Z,30.55
2018-02-14T22:48:44.413Z,26.58
2018-02-14T22:51:10.665Z,23.45
2018-02-14T22:53:37.022Z,24.65
2018-02-14T22:56:03.312Z,27.30
2018-02-14T22:58:29.722Z,24.60
2018-02-14T23:00:55.969Z,23.15
2018-02-14T23:03:22.214Z,29.37
2018-02-14T23:05:48.471Z,25.60
2018-02-14T23:08:14.807Z,29.45
2018-02-14T23:10:41.430Z,37.15
2018-02-14T23:13:07.719Z,37.40
2018-02-14T23:15:34.049Z,33.70
2018-02-14T23:18:00.289Z,33.63
2018-02-14T23:20:26.631Z,37.03
2018-02-14T23:22:52.903Z,35.53
2018-02-14T23:25:19.255Z,33.05
2018-02-14T23:27:45.655Z,30.98
2018-02-14T23:30:12.048Z,29.12
2018-02-14T23:32:38.299Z,27.62
2018-02-14T23:35:04.600Z,30.73
2018-02-14T23:37:30.826Z,30.85
2018-02-14T23:39:57.094Z,32.60
2018-02-14T23:42:23.298Z,36.28
2018-02-14T23:44:56.493Z,35.47
2018-02-14T23:47:22.783Z,26.98
2018-02-14T23:49:49.067Z,26.58
2018-02-14T23:52:15.366Z,29.80
2018-02-14T23:54:41.637Z,33.83
2018-02-14T23:57:07.933Z,30.98
2018-02-14T23:59:34.291Z,26.87
